Time;durP1;ratioP1;P1;durP2;ratioP2;P2;SDS_P1;SDS_P2;PMS_P1;PMS_P2;Temp;Humidity;BMP_temperature;BMP_pressure;BME280_temperature;BME280_humidity;BME280_pressure;Samples;Min_cycle;Max_cycle;Signal;HPM_P1;HPM_P2
2022/10/07 00:01:54;;;;;;;11.45;2.53;;;10.30;99.90;;;;;;5025137;28;20128;-80
2022/10/07 00:04:20;;;;;;;12.60;2.35;;;10.40;99.90;;;;;;5049773;28;20495;-81
2022/10/07 00:06:46;;;;;;;11.00;2.42;;;10.20;99.90;;;;;;5048635;28;20051;-78
2022/10/07 00:09:12;;;;;;;19.05;2.88;;;10.30;99.90;;;;;;5038548;28;20033;-79
2022/10/07 00:11:38;;;;;;;20.05;2.75;;;10.20;99.90;;;;;;5050165;28;20051;-79
2022/10/07 00:14:08;;;;;;;10.27;2.10;;;10.40;99.90;;;;;;5050237;28;20095;-80
2022/10/07 00:16:37;;;;;;;8.90;2.70;;;10.30;99.90;;;;;;5049757;28;20043;-80
2022/10/07 00:19:06;;;;;;;20.63;3.55;;;10.30;99.90;;;;;;5051093;28;20091;-79
2022/10/07 00:21:33;;;;;;;8.90;2.05;;;10.30;99.90;;;;;;5049972;28;20083;-81
2022/10/07 00:24:00;;;;;;;15.40;2.97;;;10.40;99.90;;;;;;5049323;28;20060;-81
2022/10/07 00:26:28;;;;;;;9.95;2.25;;;10.30;99.90;;;;;;5050777;28;20041;-81
2022/10/07 00:28:54;;;;;;;11.13;3.47;;;10.30;99.90;;;;;;5049906;28;20052;-81
2022/10/07 00:31:26;;;;;;;15.10;3.30;;;10.30;99.90;;;;;;5050766;28;20060;-79
2022/10/07 00:33:53;;;;;;;13.45;2.97;;;10.30;99.90;;;;;;5048827;28;20098;-80
2022/10/07 00:36:23;;;;;;;11.68;2.17;;;10.30;99.90;;;;;;5049983;28;20037;-81
2022/10/07 00:38:50;;;;;;;;;;;10.20;99.90;;;;;;5050663;28;20053;-80
2022/10/07 00:41:21;;;;;;;5.97;1.77;;;10.30;99.90;;;;;;5049863;28;20283;-79
2022/10/07 00:43:47;;;;;;;11.55;4.18;;;10.20;99.90;;;;;;5049016;28;20407;-81
2022/10/07 00:46:23;;;;;;;14.73;3.45;;;10.20;99.90;;;;;;5049748;28;20045;-81
2022/10/07 00:48:49;;;;;;;8.00;2.65;;;10.20;99.90;;;;;;5046776;28;20400;-80
2022/10/07 00:51:15;;;;;;;13.40;2.88;;;10.30;99.90;;;;;;5048387;28;20037;-80
2022/10/07 00:53:45;;;;;;;10.05;2.58;;;10.10;99.90;;;;;;5047725;28;20116;-80
2022/10/07 00:56:11;;;;;;;9.60;2.63;;;10.30;99.90;;;;;;5047674;28;20040;-80
2022/10/07 00:58:40;;;;;;;11.77;2.45;;;10.20;99.90;;;;;;5030319;28;20046;-79
2022/10/07 01:01:06;;;;;;;13.88;3.40;;;10.30;99.90;;;;;;5030595;28;20041;-78
2022/10/07 01:03:34;;;;;;;11.43;2.53;;;10.10;99.90;;;;;;5031429;28;20122;-81
2022/10/07 01:06:04;;;;;;;11.15;2.30;;;10.10;99.90;;;;;;5091818;22;20049;-80
2022/10/07 01:08:31;;;;;;;10.77;3.20;;;10.20;99.90;;;;;;5045202;28;20045;-79
2022/10/07 01:11:15;;;;;;;16.92;4.57;;;10.10;99.90;;;;;;5034008;28;20033;-80
2022/10/07 01:13:50;;;;;;;12.25;2.75;;;10.10;99.90;;;;;;5043265;28;20120;-80
2022/10/07 01:16:20;;;;;;;14.70;3.42;;;10.20;99.90;;;;;;5046048;28;20468;-80
2022/10/07 01:18:56;;;;;;;16.77;2.70;;;10.10;99.90;;;;;;5049708;28;20055;-78
2022/10/07 01:21:37;;;;;;;11.30;2.88;;;10.00;99.90;;;;;;5048483;28;20045;-80
2022/10/07 01:24:16;;;;;;;15.95;3.75;;;10.10;99.90;;;;;;5048985;28;20094;-81
2022/10/07 01:26:47;;;;;;;12.38;2.65;;;10.00;99.90;;;;;;5050050;28;20203;-79
2022/10/07 01:29:32;;;;;;;11.77;3.03;;;10.10;99.90;;;;;;5050118;28;20048;-81
2022/10/07 01:32:21;;;;;;;12.07;3.55;;;10.00;99.90;;;;;;5048967;28;20073;-80
2022/10/07 01:34:50;;;;;;;13.73;4.63;;;9.90;99.90;;;;;;5043535;28;20115;-80
2022/10/07 01:37:18;;;;;;;18.67;3.38;;;9.90;99.90;;;;;;5028638;28;20041;-78
2022/10/07 01:39:55;;;;;;;18.48;3.53;;;9.90;99.90;;;;;;5038951;28;20121;-80
2022/10/07 01:42:25;;;;;;;10.40;3.08;;;10.00;99.90;;;;;;5048857;28;20404;-79
2022/10/07 01:44:54;;;;;;;10.37;2.50;;;10.00;99.90;;;;;;5052514;28;20041;-79
2022/10/07 01:47:19;;;;;;;13.10;3.55;;;9.90;99.90;;;;;;5034558;28;20051;-80
2022/10/07 01:49:45;;;;;;;13.40;3.30;;;10.00;99.90;;;;;;5033682;28;20128;-78
2022/10/07 01:52:35;;;;;;;11.55;4.50;;;9.80;99.90;;;;;;5032815;28;20045;-81
2022/10/07 01:55:12;;;;;;;22.45;4.32;;;10.00;99.90;;;;;;5038337;28;20068;-79
2022/10/07 01:58:26;;;;;;;10.82;3.88;;;9.90;99.90;;;;;;5052380;28;20052;-80
2022/10/07 02:01:05;;;;;;;12.32;4.30;;;9.70;99.90;;;;;;5034070;28;20136;-79
2022/10/07 02:03:49;;;;;;;10.57;3.70;;;9.80;99.90;;;;;;5052764;28;20092;-79
2022/10/07 02:06:39;;;;;;;8.20;2.65;;;9.70;99.90;;;;;;5051740;28;20404;-78
2022/10/07 02:09:30;;;;;;;14.40;3.90;;;9.70;99.90;;;;;;5052322;28;20076;-80
2022/10/07 02:12:06;;;;;;;8.18;2.95;;;9.60;99.90;;;;;;5052634;28;20045;-78
2022/10/07 02:14:46;;;;;;;16.23;5.07;;;9.70;99.90;;;;;;5032972;28;20404;-79
2022/10/07 02:17:18;;;;;;;21.95;3.78;;;9.70;99.90;;;;;;5032948;28;20186;-81
2022/10/07 02:19:52;;;;;;;17.13;3.97;;;9.60;99.90;;;;;;5036363;28;20045;-80
2022/10/07 02:22:20;;;;;;;16.60;4.70;;;9.80;99.90;;;;;;5051291;28;20044;-78
2022/10/07 02:24:48;;;;;;;6.80;2.53;;;9.70;99.90;;;;;;5043960;28;20062;-79
2022/10/07 02:27:18;;;;;;;20.17;4.28;;;9.70;99.90;;;;;;5052070;28;20052;-79
2022/10/07 02:29:45;;;;;;;27.23;5.07;;;9.60;99.90;;;;;;5051996;28;20462;-79
2022/10/07 02:32:18;;;;;;;28.92;6.25;;;9.70;99.90;;;;;;5037812;28;20053;-81
2022/10/07 02:34:47;;;;;;;13.90;4.32;;;9.70;99.90;;;;;;5047471;28;20041;-78
2022/10/07 02:37:24;;;;;;;31.88;3.70;;;9.50;99.90;;;;;;5031824;28;20042;-80
2022/10/07 02:39:52;;;;;;;20.63;4.55;;;9.50;99.90;;;;;;5042977;28;20044;-79
2022/10/07 02:42:38;;;;;;;14.27;3.22;;;9.40;99.90;;;;;;5051878;28;20052;-77
2022/10/07 02:45:18;;;;;;;19.13;3.97;;;9.50;99.90;;;;;;5042209;28;20048;-80
2022/10/07 02:47:52;;;;;;;15.55;3.35;;;9.60;99.90;;;;;;5052296;28;20419;-80
2022/10/07 02:50:22;;;;;;;11.15;4.68;;;9.40;99.90;;;;;;5052201;28;20037;-78
2022/10/07 02:52:50;;;;;;;17.92;5.68;;;9.60;99.90;;;;;;5051425;28;20492;-79
2022/10/07 02:55:21;;;;;;;11.63;3.90;;;9.60;99.90;;;;;;5033670;28;20499;-78
2022/10/07 02:57:51;;;;;;;17.60;4.63;;;9.40;99.90;;;;;;5052967;28;20052;-81
2022/10/07 03:00:18;;;;;;;12.35;4.13;;;9.60;99.90;;;;;;5052899;28;20045;-78
2022/10/07 03:02:57;;;;;;;16.95;4.57;;;9.60;99.90;;;;;;5053568;28;20060;-80
2022/10/07 03:05:25;;;;;;;13.63;4.45;;;9.60;99.90;;;;;;5051445;28;20068;-80
2022/10/07 03:07:57;;;;;;;11.38;3.90;;;9.40;99.90;;;;;;5051575;28;20053;-80
2022/10/07 03:10:25;;;;;;;10.57;2.97;;;9.60;99.90;;;;;;5050577;28;20498;-80
2022/10/07 03:12:51;;;;;;;12.43;3.88;;;9.50;99.90;;;;;;5046428;28;20041;-78
2022/10/07 03:15:17;;;;;;;17.15;3.88;;;9.50;99.90;;;;;;5051384;28;20045;-81
2022/10/07 03:17:43;;;;;;;20.25;4.68;;;9.70;99.90;;;;;;5051830;28;20052;-81
2022/10/07 03:20:09;;;;;;;18.92;4.90;;;9.50;99.90;;;;;;5050201;28;20041;-80
2022/10/07 03:22:35;;;;;;;19.15;3.75;;;9.60;99.90;;;;;;5050374;28;20037;-81
2022/10/07 03:25:00;;;;;;;14.20;3.85;;;9.60;99.90;;;;;;5049993;28;20043;-79
2022/10/07 03:27:27;;;;;;;10.27;3.15;;;9.50;99.90;;;;;;5051843;28;20041;-77
2022/10/07 03:29:54;;;;;;;13.63;4.68;;;9.70;99.90;;;;;;5051658;28;20120;-80
2022/10/07 03:32:20;;;;;;;18.45;4.65;;;9.40;99.90;;;;;;5047155;28;20049;-80
2022/10/07 03:34:45;;;;;;;17.35;3.47;;;9.50;99.90;;;;;;5049922;28;20037;-76
2022/10/07 03:37:11;;;;;;;14.55;3.70;;;9.50;99.90;;;;;;5052135;28;20037;-79
2022/10/07 03:39:37;;;;;;;17.30;4.45;;;9.40;99.90;;;;;;5032883;28;20067;-79
2022/10/07 03:42:03;;;;;;;20.33;4.03;;;9.40;99.90;;;;;;5056512;28;20045;-80
2022/10/07 03:44:29;;;;;;;22.75;5.07;;;9.50;99.90;;;;;;5040217;28;20055;-80
2022/10/07 03:46:54;;;;;;;17.45;4.10;;;9.40;99.90;;;;;;5050617;28;20041;-79
2022/10/07 03:49:20;;;;;;;15.45;4.03;;;9.50;99.90;;;;;;5050982;28;20045;-80
2022/10/07 03:51:46;;;;;;;19.45;5.15;;;9.50;99.90;;;;;;5042493;28;20051;-78
2022/10/07 03:54:12;;;;;;;28.70;5.00;;;9.50;99.90;;;;;;5051357;28;20404;-78
2022/10/07 03:56:37;;;;;;;16.48;4.07;;;9.60;99.90;;;;;;5043695;28;20056;-81
2022/10/07 03:59:03;;;;;;;15.05;4.65;;;9.50;99.90;;;;;;5045645;28;20521;-80
2022/10/07 04:01:30;;;;;;;17.92;5.07;;;9.60;99.90;;;;;;5040806;28;20050;-80
2022/10/07 04:03:57;;;;;;;12.68;3.42;;;9.40;99.90;;;;;;5046203;28;20361;-80
2022/10/07 04:06:22;;;;;;;12.68;3.90;;;9.70;99.90;;;;;;5049609;28;20056;-78
2022/10/07 04:08:52;;;;;;;20.48;5.05;;;9.50;99.90;;;;;;5051035;28;20123;-80
2022/10/07 04:11:18;;;;;;;21.65;4.55;;;9.60;99.90;;;;;;5051167;28;20121;-80
2022/10/07 04:13:44;;;;;;;12.60;4.65;;;9.50;99.90;;;;;;5051548;28;20128;-81
2022/10/07 04:16:11;;;;;;;14.07;3.47;;;9.50;99.90;;;;;;5051071;28;20041;-79
2022/10/07 04:18:40;;;;;;;18.90;4.53;;;9.50;99.90;;;;;;5051194;28;20403;-80
2022/10/07 04:21:07;;;;;;;14.15;3.95;;;9.50;99.90;;;;;;5049945;28;20045;-80
2022/10/07 04:23:33;;;;;;;17.27;4.15;;;9.60;99.90;;;;;;5050991;28;20094;-81
2022/10/07 04:25:59;;;;;;;13.80;5.10;;;9.50;99.90;;;;;;5049621;28;20051;-80
2022/10/07 04:28:25;;;;;;;14.93;4.38;;;9.70;99.90;;;;;;5050144;28;20049;-79
2022/10/07 04:30:52;;;;;;;28.33;6.60;;;9.50;99.90;;;;;;5047129;28;20041;-80
2022/10/07 04:33:20;;;;;;;11.63;3.80;;;9.70;99.90;;;;;;5045813;28;20044;-79
2022/10/07 04:35:48;;;;;;;27.67;6.72;;;9.50;99.90;;;;;;5039084;28;20038;-79
2022/10/07 04:38:14;;;;;;;24.98;6.45;;;9.50;99.90;;;;;;5049991;28;20037;-80
2022/10/07 04:40:47;;;;;;;12.35;3.00;;;9.40;99.90;;;;;;5048775;28;20045;-80
2022/10/07 04:43:25;;;;;;;19.95;4.45;;;9.40;99.90;;;;;;5016433;28;20053;-80
2022/10/07 04:46:00;;;;;;;22.20;5.03;;;9.70;99.90;;;;;;5047630;28;20048;-79
2022/10/07 04:48:26;;;;;;;17.33;4.57;;;9.50;99.90;;;;;;5044707;28;20049;-79
2022/10/07 04:50:52;;;;;;;15.55;5.22;;;9.70;99.90;;;;;;5023345;28;20522;-80
2022/10/07 04:53:18;;;;;;;30.17;6.65;;;9.80;99.90;;;;;;5049550;28;20041;-81
2022/10/07 04:55:47;;;;;;;19.40;5.90;;;9.70;99.90;;;;;;5046235;28;20037;-80
2022/10/07 04:58:14;;;;;;;33.88;5.95;;;9.50;99.90;;;;;;5026882;28;20056;-79
2022/10/07 05:00:59;;;;;;;18.92;4.68;;;9.60;99.90;;;;;;5049394;28;20102;-79
2022/10/07 05:03:27;;;;;;;26.70;5.97;;;9.80;99.90;;;;;;5042838;28;20396;-79
2022/10/07 05:05:55;;;;;;;16.60;6.25;;;9.90;99.90;;;;;;5046515;28;20071;-79
2022/10/07 05:08:26;;;;;;;30.27;6.22;;;9.90;99.90;;;;;;5034671;28;20057;-78
2022/10/07 05:10:55;;;;;;;;;;;9.90;99.90;;;;;;5032595;28;20368;-79
2022/10/07 05:13:23;;;;;;;20.48;4.88;;;9.90;99.90;;;;;;5049110;28;19921;-79
2022/10/07 05:15:52;;;;;;;18.30;6.18;;;9.80;99.90;;;;;;5047056;28;20041;-80
2022/10/07 05:18:19;;;;;;;13.10;5.18;;;9.70;99.90;;;;;;5046743;28;20077;-80
2022/10/07 05:20:47;;;;;;;22.38;5.50;;;9.80;99.90;;;;;;5052772;28;20041;-79
2022/10/07 05:23:18;;;;;;;15.18;5.38;;;9.70;99.90;;;;;;5051257;28;20384;-80
2022/10/07 05:25:44;;;;;;;21.05;6.65;;;10.00;99.90;;;;;;5053112;28;20128;-79
2022/10/07 05:28:11;;;;;;;33.50;6.35;;;9.80;99.90;;;;;;5042871;28;20052;-80
2022/10/07 05:30:37;;;;;;;14.77;4.25;;;9.70;99.90;;;;;;5044134;28;20116;-78
2022/10/07 05:33:04;;;;;;;13.18;4.82;;;10.00;99.90;;;;;;5052543;28;20033;-78
2022/10/07 05:35:30;;;;;;;19.17;4.47;;;9.90;99.90;;;;;;5042504;28;20048;-80
2022/10/07 05:37:56;;;;;;;16.85;5.53;;;9.90;99.90;;;;;;5045609;28;20041;-79
2022/10/07 05:40:22;;;;;;;22.05;6.43;;;10.00;99.90;;;;;;5052758;28;20071;-80
2022/10/07 05:42:48;;;;;;;20.33;6.80;;;10.10;99.90;;;;;;5040887;28;20045;-80
2022/10/07 05:45:14;;;;;;;24.08;7.30;;;9.80;99.90;;;;;;5053370;28;20048;-81
2022/10/07 05:47:40;;;;;;;21.38;5.47;;;9.80;99.90;;;;;;5052698;28;20403;-79
2022/10/07 05:50:06;;;;;;;20.55;5.53;;;9.90;99.90;;;;;;5052612;28;20041;-79
2022/10/07 05:52:34;;;;;;;19.50;5.43;;;9.90;99.90;;;;;;5053152;28;20048;-80
2022/10/07 05:55:00;;;;;;;46.88;6.25;;;10.10;99.90;;;;;;5021456;28;20041;-79
2022/10/07 05:57:25;;;;;;;19.92;5.25;;;9.80;99.90;;;;;;5052654;28;20095;-80
2022/10/07 05:59:51;;;;;;;19.70;5.78;;;9.90;99.90;;;;;;5041346;28;20045;-79
2022/10/07 06:02:18;;;;;;;12.05;4.63;;;9.90;99.90;;;;;;5051804;28;20055;-77
2022/10/07 06:04:47;;;;;;;21.42;5.47;;;10.00;99.90;;;;;;5031855;28;20427;-78
2022/10/07 06:07:14;;;;;;;19.20;4.63;;;10.20;99.90;;;;;;5042514;28;20041;-79
2022/10/07 06:15:16;;;;;;;17.60;6.10;;;9.90;99.90;;;;;;5046018;28;20076;-79
2022/10/07 06:17:43;;;;;;;16.30;4.28;;;10.00;99.90;;;;;;5040923;28;20076;-79
2022/10/07 06:20:10;;;;;;;27.45;7.25;;;10.30;99.90;;;;;;5050481;28;20098;-80
2022/10/07 06:22:36;;;;;;;18.73;5.43;;;10.00;99.90;;;;;;5052224;28;20149;-80
2022/10/07 06:25:02;;;;;;;26.83;6.20;;;10.00;99.90;;;;;;5052080;28;20040;-79
2022/10/07 06:27:28;;;;;;;27.40;6.00;;;10.30;99.90;;;;;;5053161;28;20068;-80
2022/10/07 06:29:54;;;;;;;19.83;6.47;;;10.10;99.90;;;;;;5051200;28;20427;-79
2022/10/07 06:32:19;;;;;;;16.27;5.03;;;10.40;99.90;;;;;;5060761;28;20098;-77
2022/10/07 06:34:45;;;;;;;24.20;5.82;;;10.40;99.90;;;;;;5050999;28;20047;-78
2022/10/07 06:37:11;;;;;;;33.72;7.00;;;10.50;99.90;;;;;;5035496;28;20084;-76
2022/10/07 06:39:36;;;;;;;17.42;6.65;;;10.50;99.90;;;;;;5039387;28;20045;-79
2022/10/07 06:42:02;;;;;;;20.83;5.50;;;10.40;99.90;;;;;;5050889;28;20045;-79
2022/10/07 06:44:29;;;;;;;23.33;6.20;;;10.30;99.90;;;;;;5051584;28;20029;-77
2022/10/07 06:46:55;;;;;;;21.40;5.82;;;10.60;99.90;;;;;;5051474;28;20398;-78
2022/10/07 06:49:21;;;;;;;25.48;6.20;;;10.50;99.90;;;;;;5047766;28;20041;-79
2022/10/07 06:51:47;;;;;;;23.90;5.97;;;10.70;99.90;;;;;;5050600;28;20091;-80
2022/10/07 06:54:13;;;;;;;17.33;4.78;;;10.80;99.90;;;;;;5047353;28;20034;-79
2022/10/07 06:56:38;;;;;;;13.98;4.75;;;10.70;99.90;;;;;;5013894;28;20088;-78
2022/10/07 06:59:04;;;;;;;16.75;5.13;;;10.80;99.90;;;;;;5035538;28;20449;-80
2022/10/07 07:01:30;;;;;;;20.10;5.10;;;10.80;99.90;;;;;;5051372;28;20124;-79
2022/10/07 07:03:56;;;;;;;18.33;5.80;;;10.80;99.90;;;;;;5050597;28;20120;-80
2022/10/07 07:06:22;;;;;;;18.30;5.00;;;11.00;99.90;;;;;;5038443;28;20049;-72
2022/10/07 07:08:49;;;;;;;28.70;7.55;;;11.20;99.90;;;;;;5022249;28;20056;-81
2022/10/07 07:14:00;;;;;;;25.83;6.22;;;11.00;99.90;;;;;;5049908;28;20379;-78
2022/10/07 07:16:27;;;;;;;15.48;4.88;;;11.00;99.90;;;;;;5038958;28;20041;-80
2022/10/07 07:19:05;;;;;;;16.88;3.65;;;11.20;99.90;;;;;;5043370;28;20163;-80
2022/10/07 07:21:33;;;;;;;26.50;5.32;;;11.20;99.90;;;;;;5030979;28;20049;-78
2022/10/07 07:24:00;;;;;;;23.33;5.95;;;11.20;99.90;;;;;;5048404;28;20047;-79
2022/10/07 07:26:28;;;;;;;17.40;5.32;;;11.40;99.90;;;;;;5048960;28;20041;-79
2022/10/07 07:29:00;;;;;;;22.20;5.47;;;11.30;99.90;;;;;;5050777;28;20504;-77
2022/10/07 07:31:31;;;;;;;14.30;4.72;;;11.60;99.90;;;;;;5050776;28;20048;-78
2022/10/07 07:34:00;;;;;;;20.23;5.22;;;11.50;99.90;;;;;;5049084;28;20045;-79
2022/10/07 07:36:28;;;;;;;20.45;5.60;;;11.40;99.90;;;;;;5030149;28;20037;-78
2022/10/07 07:38:55;;;;;;;22.83;5.53;;;11.70;99.90;;;;;;5031061;28;20056;-79
2022/10/07 07:41:27;;;;;;;27.15;5.60;;;11.80;99.90;;;;;;5031257;28;20064;-78
2022/10/07 07:43:54;;;;;;;13.52;5.05;;;11.60;99.90;;;;;;5028172;28;20051;-79
2022/10/07 07:46:23;;;;;;;12.73;4.55;;;11.80;99.90;;;;;;5050845;28;20075;-78
2022/10/07 07:48:50;;;;;;;13.70;3.33;;;11.80;99.90;;;;;;5050154;28;20037;-77
2022/10/07 07:51:17;;;;;;;13.93;4.70;;;12.00;99.90;;;;;;5031835;28;20147;-80
2022/10/07 07:53:44;;;;;;;16.30;5.07;;;12.10;99.90;;;;;;5033398;28;20095;-77
2022/10/07 07:56:11;;;;;;;13.50;3.83;;;12.10;99.90;;;;;;5050474;28;20045;-77
2022/10/07 07:58:37;;;;;;;17.27;4.10;;;12.00;99.90;;;;;;5032700;28;20060;-78
2022/10/07 08:01:06;;;;;;;24.08;4.22;;;12.30;99.90;;;;;;5015708;28;20118;-78
2022/10/07 08:03:36;;;;;;;15.63;5.28;;;12.30;99.90;;;;;;5050622;28;20099;-78
2022/10/07 08:06:06;;;;;;;14.00;3.33;;;12.20;99.90;;;;;;5049088;28;20099;-77
2022/10/07 08:08:33;;;;;;;20.20;5.03;;;12.10;99.90;;;;;;5049989;28;20037;-77
2022/10/07 08:11:12;;;;;;;24.58;6.55;;;12.20;99.90;;;;;;5032059;28;20422;-77
2022/10/07 08:13:40;;;;;;;24.17;5.95;;;12.40;99.90;;;;;;5048974;28;20041;-77
2022/10/07 08:16:11;;;;;;;12.32;4.15;;;12.40;99.90;;;;;;5030170;28;20053;-76
2022/10/07 08:18:38;;;;;;;19.75;4.28;;;12.50;99.90;;;;;;5030310;28;20072;-76
2022/10/07 08:21:06;;;;;;;23.08;6.07;;;12.40;99.90;;;;;;5042172;28;20075;-77
2022/10/07 08:23:34;;;;;;;18.23;4.13;;;12.40;99.90;;;;;;5049826;28;20395;-77
2022/10/07 08:26:00;;;;;;;24.05;5.00;;;12.60;99.90;;;;;;5031647;28;20072;-76
2022/10/07 08:28:27;;;;;;;14.98;3.85;;;12.40;99.90;;;;;;5034233;28;20392;-77
2022/10/07 08:30:53;;;;;;;12.73;3.47;;;12.60;99.90;;;;;;5022843;28;20065;-77
2022/10/07 08:33:20;;;;;;;13.68;3.67;;;12.70;99.90;;;;;;5021128;28;20400;-76
2022/10/07 08:35:58;;;;;;;19.15;3.72;;;12.70;99.90;;;;;;5037415;28;20064;-77
2022/10/07 08:38:24;;;;;;;21.38;5.07;;;12.90;99.90;;;;;;5038576;28;20067;-77
2022/10/07 08:40:52;;;;;;;18.80;4.72;;;12.90;99.90;;;;;;5049382;28;20519;-77
2022/10/07 08:43:20;;;;;;;21.70;5.78;;;13.10;99.90;;;;;;5050141;28;20359;-76
2022/10/07 08:45:47;;;;;;;16.15;3.33;;;13.10;99.90;;;;;;5049814;28;20127;-77
2022/10/07 08:48:21;;;;;;;17.88;4.45;;;13.20;99.90;;;;;;5049883;28;20178;-77
2022/10/07 08:51:21;;;;;;;12.52;5.13;;;13.30;99.90;;;;;;5048526;28;20029;-77
2022/10/07 08:53:49;;;;;;;16.58;6.00;;;13.20;99.90;;;;;;5013394;28;20455;-76
2022/10/07 08:56:22;;;;;;;20.77;5.93;;;13.40;99.90;;;;;;5049332;28;20041;-76
2022/10/07 08:59:03;;;;;;;21.90;6.65;;;13.30;99.90;;;;;;5047359;28;20477;-77
2022/10/07 09:01:34;;;;;;;24.92;6.53;;;13.30;99.90;;;;;;5048270;28;20037;-76
2022/10/07 09:04:41;;;;;;;20.38;6.40;;;13.40;99.90;;;;;;5046959;28;20091;-76
2022/10/07 09:07:28;;;;;;;20.55;5.57;;;13.40;99.90;;;;;;5028579;28;20487;-76
2022/10/07 09:09:57;;;;;;;23.08;7.15;;;13.60;99.90;;;;;;5046877;28;20041;-76
2022/10/07 09:12:40;;;;;;;18.08;5.78;;;13.60;99.90;;;;;;5045911;28;20049;-77
2022/10/07 09:15:17;;;;;;;17.55;5.40;;;13.60;99.90;;;;;;5030204;28;20046;-76
2022/10/07 09:17:52;;;;;;;17.35;5.55;;;13.70;99.90;;;;;;5043581;28;20052;-76
2022/10/07 09:20:20;;;;;;;14.65;4.20;;;14.10;99.90;;;;;;5047339;28;20033;-76
2022/10/07 09:22:56;;;;;;;16.92;4.57;;;14.20;99.90;;;;;;5048167;28;20491;-76
2022/10/07 09:25:24;;;;;;;17.17;3.88;;;14.10;99.90;;;;;;5049013;28;20499;-77
2022/10/07 09:27:51;;;;;;;16.40;4.15;;;14.10;99.90;;;;;;5048056;28;20403;-77
2022/10/07 09:30:18;;;;;;;22.92;5.38;;;14.00;99.90;;;;;;5045669;28;20045;-77
2022/10/07 09:32:46;;;;;;;18.30;5.57;;;13.90;99.90;;;;;;5052091;28;20120;-77
2022/10/07 09:35:18;;;;;;;22.25;5.57;;;14.20;99.90;;;;;;5042519;28;20036;-77
2022/10/07 09:38:10;;;;;;;11.07;3.17;;;14.30;99.90;;;;;;5045485;28;20087;-78
2022/10/07 09:41:13;;;;;;;20.48;5.75;;;14.20;99.90;;;;;;5023590;28;20111;-78
2022/10/07 09:43:27;;;;;;;;;;;14.50;99.90;;;;;;5029352;28;20056;-77
2022/10/07 09:45:55;;;;;;;17.38;4.88;;;14.70;99.90;;;;;;5033195;28;19920;-78
2022/10/07 09:48:24;;;;;;;21.73;4.80;;;14.80;99.90;;;;;;5047157;28;20049;-80
2022/10/07 09:50:50;;;;;;;20.25;4.97;;;14.60;99.90;;;;;;5044855;28;20048;-78
2022/10/07 09:53:15;;;;;;;19.00;3.25;;;14.60;99.90;;;;;;5045824;28;20045;-78
2022/10/07 09:55:42;;;;;;;15.98;3.97;;;14.40;99.90;;;;;;5032118;28;20133;-76
2022/10/07 09:58:24;;;;;;;20.48;4.25;;;14.60;99.90;;;;;;5048202;28;20115;-79
2022/10/07 10:00:53;;;;;;;19.30;3.33;;;14.60;99.90;;;;;;5029443;28;20454;-79
2022/10/07 10:03:19;;;;;;;10.25;3.25;;;14.50;99.90;;;;;;5040220;28;20119;-78
2022/10/07 10:05:59;;;;;;;13.95;4.60;;;14.50;99.90;;;;;;5031279;28;20062;-78
2022/10/07 10:08:28;;;;;;;17.45;3.55;;;14.30;99.90;;;;;;5040415;28;20057;-79
2022/10/07 10:10:58;;;;;;;15.48;3.00;;;14.40;99.90;;;;;;5052315;28;20029;-78
2022/10/07 10:13:26;;;;;;;10.77;3.05;;;14.50;99.90;;;;;;5044490;28;20499;-78
2022/10/07 10:15:51;;;;;;;11.73;3.70;;;14.80;99.90;;;;;;5029531;28;20389;-79
2022/10/07 10:18:26;;;;;;;16.17;4.13;;;14.90;99.90;;;;;;5053220;28;20056;-78
2022/10/07 10:20:52;;;;;;;12.35;3.75;;;14.90;99.90;;;;;;5050870;28;20037;-79
2022/10/07 10:23:39;;;;;;;22.40;4.65;;;15.10;99.90;;;;;;5050372;28;20049;-79
2022/10/07 10:26:26;;;;;;;44.15;5.43;;;15.20;99.90;;;;;;5051391;28;20049;-78
2022/10/07 10:29:02;;;;;;;16.77;4.43;;;15.30;99.90;;;;;;5037138;28;20055;-79
2022/10/07 10:31:41;;;;;;;13.10;3.10;;;15.10;99.90;;;;;;5048097;28;20104;-80
2022/10/07 10:34:21;;;;;;;15.30;4.20;;;15.40;99.90;;;;;;5043800;28;20052;-78
2022/10/07 10:36:57;;;;;;;17.38;4.50;;;15.30;99.90;;;;;;5049612;28;20407;-76
2022/10/07 10:39:28;;;;;;;18.65;4.68;;;15.30;99.90;;;;;;5037669;28;20037;-79
2022/10/07 10:41:59;;;;;;;13.20;4.32;;;15.40;99.90;;;;;;5042102;28;20044;-81
2022/10/07 10:44:53;;;;;;;13.00;2.83;;;15.50;99.90;;;;;;5010139;28;20045;-80
2022/10/07 10:47:42;;;;;;;14.63;3.70;;;15.60;99.90;;;;;;5046758;28;20076;-81
2022/10/07 10:50:11;;;;;;;14.52;2.78;;;15.60;99.90;;;;;;5029489;28;20099;-78
2022/10/07 10:52:55;;;;;;;13.50;2.88;;;15.70;99.90;;;;;;5045563;28;20135;-80
2022/10/07 10:55:27;;;;;;;15.20;3.15;;;15.70;99.90;;;;;;5050830;28;20584;-79
2022/10/07 10:58:05;;;;;;;18.00;3.92;;;15.90;99.90;;;;;;5050522;28;20032;-81
2022/10/07 11:00:48;;;;;;;15.13;2.95;;;15.80;99.90;;;;;;5050890;28;20506;-79
2022/10/07 11:03:24;;;;;;;16.85;4.30;;;16.00;99.90;;;;;;5045290;28;20102;-79
2022/10/07 11:05:51;;;;;;;15.93;3.10;;;16.00;99.90;;;;;;5049422;28;20175;-80
2022/10/07 11:08:21;;;;;;;19.77;4.07;;;16.30;99.90;;;;;;5050321;28;20044;-79
2022/10/07 11:10:56;;;;;;;24.52;4.10;;;16.10;99.90;;;;;;5040941;28;20037;-80
2022/10/07 11:13:35;;;;;;;16.10;4.45;;;16.10;99.90;;;;;;5040232;28;20472;-79
2022/10/07 11:16:29;;;;;;;27.13;4.80;;;16.20;99.90;;;;;;5048641;28;20478;-79
2022/10/07 11:19:07;;;;;;;10.60;3.20;;;16.50;99.90;;;;;;5042373;28;20114;-80
2022/10/07 11:21:40;;;;;;;11.00;3.67;;;16.50;99.90;;;;;;5045408;28;20106;-80
2022/10/07 11:24:15;;;;;;;16.45;3.85;;;16.40;99.90;;;;;;5042646;28;20038;-80
2022/10/07 11:26:49;;;;;;;12.93;2.67;;;16.30;99.90;;;;;;5041193;28;20041;-77
2022/10/07 11:29:41;;;;;;;16.42;2.60;;;16.30;99.90;;;;;;5039678;28;20045;-79
2022/10/07 11:32:20;;;;;;;13.00;2.85;;;16.50;99.90;;;;;;5043009;28;20053;-80
2022/10/07 11:34:55;;;;;;;11.65;2.90;;;16.40;99.90;;;;;;5046232;28;20029;-78
2022/10/07 11:37:44;;;;;;;27.67;3.70;;;16.30;99.90;;;;;;5040450;28;20045;-80
2022/10/07 11:40:10;;;;;;;18.95;3.67;;;16.40;99.90;;;;;;5045038;28;20132;-79
2022/10/07 11:42:49;;;;;;;11.80;2.95;;;16.70;99.90;;;;;;5031696;28;20759;-81
2022/10/07 11:45:27;;;;;;;13.88;2.95;;;16.50;99.90;;;;;;5026336;28;20068;-80
2022/10/07 11:48:01;;;;;;;15.68;3.15;;;16.30;99.90;;;;;;5031120;28;20038;-78
2022/10/07 11:51:01;;;;;;;17.05;3.30;;;16.40;99.90;;;;;;5048524;28;20158;-80
2022/10/07 11:53:30;;;;;;;13.20;2.78;;;16.30;99.90;;;;;;5035967;28;20084;-79
2022/10/07 11:56:12;;;;;;;17.30;2.67;;;16.40;99.90;;;;;;5050491;28;20049;-80
2022/10/07 11:58:38;;;;;;;15.43;3.47;;;16.20;99.90;;;;;;5050453;28;20110;-81
2022/10/07 12:01:27;;;;;;;9.75;2.72;;;16.30;99.90;;;;;;5039106;28;20112;-80
2022/10/07 12:04:25;;;;;;;10.43;2.88;;;16.20;99.90;;;;;;5016620;28;20053;-79
2022/10/07 12:07:28;;;;;;;13.63;2.10;;;16.10;99.90;;;;;;5010255;28;20096;-80
2022/10/07 12:10:02;;;;;;;12.73;2.17;;;16.10;99.90;;;;;;5039727;28;20077;-78
2022/10/07 12:12:52;;;;;;;11.48;2.20;;;16.30;99.90;;;;;;5043344;28;20041;-79
2022/10/07 12:15:34;;;;;;;16.27;2.40;;;16.20;99.90;;;;;;5047760;28;20052;-78
2022/10/07 12:18:03;;;;;;;9.30;3.25;;;16.30;99.90;;;;;;5041499;28;20455;-79
2022/10/07 12:20:53;;;;;;;17.75;4.32;;;16.50;99.90;;;;;;5043991;28;20052;-78
2022/10/07 12:23:24;;;;;;;9.40;2.88;;;16.30;99.90;;;;;;5033145;28;20045;-79
2022/10/07 12:25:58;;;;;;;9.63;2.97;;;16.30;99.90;;;;;;5047246;28;20041;-78
2022/10/07 12:28:30;;;;;;;12.77;4.40;;;16.30;99.90;;;;;;5046028;28;20037;-79
2022/10/07 12:31:01;;;;;;;21.92;4.20;;;16.20;99.90;;;;;;5045608;28;20502;-77
2022/10/07 12:33:45;;;;;;;9.43;2.42;;;16.20;99.90;;;;;;5007269;28;20041;-78
2022/10/07 12:36:20;;;;;;;11.38;2.95;;;16.20;99.90;;;;;;5046922;28;20041;-80
2022/10/07 12:38:55;;;;;;;15.10;2.92;;;16.30;99.90;;;;;;5021459;28;20055;-78
2022/10/07 12:41:24;;;;;;;10.73;2.50;;;16.20;99.90;;;;;;5047434;28;20051;-78
2022/10/07 12:44:05;;;;;;;17.00;2.50;;;16.30;99.90;;;;;;5011712;28;20041;-79
2022/10/07 12:46:37;;;;;;;13.25;3.05;;;16.00;99.90;;;;;;5044091;28;20176;-79
2022/10/07 12:49:33;;;;;;;16.38;3.45;;;16.00;99.90;;;;;;5044413;28;20045;-79
2022/10/07 12:52:22;;;;;;;15.50;3.58;;;16.30;99.90;;;;;;5030907;28;20042;-77
2022/10/07 12:54:58;;;;;;;7.13;1.63;;;16.20;99.90;;;;;;5047047;28;20061;-79
2022/10/07 12:57:31;;;;;;;9.02;1.70;;;16.10;99.90;;;;;;5026116;28;20041;-79
2022/10/07 13:00:06;;;;;;;13.52;2.78;;;16.10;99.90;;;;;;5068054;28;20546;-78
2022/10/07 13:02:35;;;;;;;12.13;2.28;;;16.30;99.90;;;;;;5046080;28;20084;-78
2022/10/07 13:05:17;;;;;;;14.65;2.63;;;16.10;99.90;;;;;;5043773;28;20103;-79
2022/10/07 13:07:58;;;;;;;10.10;2.30;;;16.20;99.90;;;;;;5042559;28;20140;-74
2022/10/07 13:10:59;;;;;;;10.75;2.55;;;16.20;99.90;;;;;;5040561;28;20391;-78
2022/10/07 13:13:39;;;;;;;10.25;2.10;;;16.40;99.90;;;;;;5042822;28;21070;-78